Main page
METAR-TAF:

METAR-TAF

Airports :

Saint-Nazaire, France

latitude: 47-19N, longitude: 002-10W, elevation: 3 m

Current weather observation

The report was made 13 minutes ago, at 09:30 UTC
Wind 5 kt from the Northwest, varying between West and Northeast
Temperature 15°C
Humidity 67%
Pressure 1010 hPa
Visibility 10 km or more

METAR: LFRZ 190930Z AUTO 32005KT 260V040 9999 ////// 15/09 Q1010

Time: 11:43 (09:43 UTC)

Forecast

The report was made 4 hours and 43 minutes ago, at 05:00 UTC
Forecast valid from 19 at 06 UTC to 20 at 06 UTC
Wind 5 kt from the Northwest
Visibility 10 km or more
no clouds below 1500 m and no cumulonimbus
Temporary
from 19 at 06 UTC to 19 at 08 UTC
Visibility: 4000 m
Broken clouds at a height of 800 ft
mist
Temporary
from 19 at 12 UTC to 19 at 20 UTC
Scattered clouds at a height of 3000 ft, Cumulonimbus.
light rain showers

TAF: LFRZ 190500Z 1906/2006 32005KT CAVOK TEMPO 1906/1908 4000 BR BKN008 TEMPO 1912/1920 -SHRA SCT030CB

Weather observations and forecasts of more than 4000 airports (METAR and TAF reports).

The available stations are represented by yellow and red dots on the map.

Hover mouse over dot to see the name of the station.

Then click to see weather observations and forecasts.

To change the map : click on the green buttons with a black cross to zoom in, on the green button with a dash to zoom out, or on the green arrows for adjacent maps.


METAR-TAF: